Terminal Aerodrome Forecast
Issued by NWS

Home | Current Version | Previous Version | Text Only | Print | Product List | Glossary On
Versions: 1 2 3 4 5 6 7 8 9 10 11 12 13 14
000
FTUS46 KMTR 031720
TAFSTS
TAF
KSTS 031720Z 0318/0418 19004KT P6SM VCSH FEW010 SCT200
     FM032100 19009KT P6SM SCT200
     FM040400 VRB04KT P6SM FEW015 FEW200
     FM040600 VRB03KT P6SM BKN010
     FM041000 VRB02KT P6SM OVC008
     FM041400 00000KT 5SM BR OVC005=

USA.gov is the U.S. government's official web portal to all federal, state and local government web resources and services.